createdAt,value
2017-08-20T00:00:50.870Z,84.21
2017-08-20T00:03:19.237Z,83.83
2017-08-20T00:05:47.618Z,83.62
2017-08-20T00:08:16.025Z,83.55
2017-08-20T00:10:45.174Z,83.66
2017-08-20T00:13:13.565Z,83.79
2017-08-20T00:15:41.981Z,83.90
2017-08-20T00:18:10.361Z,83.60
2017-08-20T00:20:38.764Z,83.97
2017-08-20T00:23:07.896Z,83.79
2017-08-20T00:25:36.294Z,83.33
2017-08-20T00:28:04.689Z,82.75
2017-08-20T00:30:33.073Z,82.66
2017-08-20T00:33:01.473Z,82.64
2017-08-20T00:35:30.603Z,82.40
2017-08-20T00:37:58.988Z,83.18
2017-08-20T00:40:27.388Z,82.67
2017-08-20T00:42:55.783Z,83.20
2017-08-20T00:45:24.145Z,83.57
2017-08-20T00:47:52.535Z,83.44
2017-08-20T00:50:20.907Z,83.11
2017-08-20T00:52:49.347Z,83.29
2017-08-20T00:55:18.496Z,83.35
2017-08-20T00:57:46.873Z,83.65
2017-08-20T01:00:15.315Z,83.19
2017-08-20T01:02:44.493Z,83.11
2017-08-20T01:05:12.865Z,82.84
2017-08-20T01:07:41.232Z,83.23
2017-08-20T01:10:09.631Z,83.20
2017-08-20T01:12:37.998Z,82.81
2017-08-20T01:15:06.376Z,82.20
2017-08-20T01:17:34.851Z,82.59
2017-08-20T01:20:03.238Z,82.36
2017-08-20T01:22:31.632Z,81.90
2017-08-20T01:24:59.994Z,81.50
2017-08-20T01:27:28.416Z,81.27
2017-08-20T01:29:57.549Z,80.72
2017-08-20T01:32:25.946Z,81.39
2017-08-20T01:34:54.348Z,82.01
2017-08-20T01:37:22.723Z,82.67
2017-08-20T01:39:51.132Z,82.28
2017-08-20T01:42:20.260Z,81.99
2017-08-20T01:44:48.634Z,82.18
2017-08-20T01:47:17.048Z,82.17
2017-08-20T01:49:45.433Z,81.98
2017-08-20T01:52:13.873Z,81.92
2017-08-20T01:54:43.029Z,81.82
2017-08-20T01:57:11.390Z,81.74
2017-08-20T01:59:39.754Z,81.47
2017-08-20T02:02:08.178Z,81.28
2017-08-20T02:04:36.545Z,80.94
2017-08-20T02:07:04.937Z,81.51
2017-08-20T02:09:33.315Z,82.22
2017-08-20T02:12:01.695Z,81.63
2017-08-20T02:14:30.094Z,81.59
2017-08-20T02:16:58.462Z,81.60
2017-08-20T02:19:26.856Z,82.81
2017-08-20T02:21:55.472Z,82.84
2017-08-20T02:24:23.841Z,82.61
2017-08-20T02:26:53.007Z,82.14
2017-08-20T02:29:21.394Z,81.72
2017-08-20T02:31:49.800Z,81.32
2017-08-20T02:34:18.934Z,81.26
2017-08-20T02:36:47.321Z,81.61
2017-08-20T02:39:15.711Z,82.14
2017-08-20T02:41:44.084Z,81.96
2017-08-20T02:44:12.476Z,82.21
2017-08-20T02:46:40.846Z,82.37
2017-08-20T02:49:09.228Z,82.16
2017-08-20T02:51:37.635Z,82.27
2017-08-20T02:54:06.001Z,82.70
2017-08-20T02:56:34.397Z,82.35
2017-08-20T02:59:02.765Z,82.22
2017-08-20T03:01:31.165Z,82.24
2017-08-20T03:03:59.538Z,82.00
2017-08-20T03:06:27.906Z,82.55
2017-08-20T03:08:56.317Z,82.86
2017-08-20T03:11:24.703Z,82.18
2017-08-20T03:13:53.402Z,82.02
2017-08-20T03:16:22.548Z,81.86
2017-08-20T03:18:50.930Z,81.61
2017-08-20T03:21:19.330Z,81.75
2017-08-20T03:23:47.712Z,82.49
2017-08-20T03:26:16.105Z,82.78
2017-08-20T03:28:44.474Z,83.20
2017-08-20T03:31:12.855Z,83.43
2017-08-20T03:33:41.262Z,83.00
2017-08-20T03:36:09.635Z,83.22
2017-08-20T03:38:38.070Z,83.19
2017-08-20T03:41:06.452Z,82.79
2017-08-20T03:43:34.863Z,82.59
2017-08-20T03:46:03.242Z,82.44
2017-08-20T03:48:31.642Z,82.90
2017-08-20T03:51:00.023Z,82.90
2017-08-20T03:53:28.436Z,82.60
2017-08-20T03:55:56.809Z,82.38
2017-08-20T03:58:25.946Z,82.31
2017-08-20T04:00:54.352Z,81.92
2017-08-20T04:03:22.751Z,81.87
2017-08-20T04:05:51.141Z,81.73
2017-08-20T04:08:20.313Z,81.38
2017-08-20T04:10:48.702Z,81.64
2017-08-20T04:13:17.073Z,81.65
2017-08-20T04:15:45.478Z,81.67
2017-08-20T04:18:13.853Z,82.30
2017-08-20T04:20:42.248Z,82.53
2017-08-20T04:23:11.397Z,83.13
2017-08-20T04:25:39.761Z,83.09
2017-08-20T04:28:08.238Z,82.54
2017-08-20T04:30:36.619Z,83.33
2017-08-20T04:33:05.040Z,83.00
2017-08-20T04:35:33.427Z,83.72
2017-08-20T04:38:01.842Z,84.66
2017-08-20T04:40:30.987Z,85.58
2017-08-20T04:42:59.369Z,85.62
2017-08-20T04:45:27.769Z,85.09
2017-08-20T04:47:56.152Z,84.91
2017-08-20T04:50:24.563Z,84.52
2017-08-20T04:52:53.709Z,83.63
2017-08-20T04:55:22.109Z,83.27
2017-08-20T04:57:50.501Z,83.24
2017-08-20T05:00:18.892Z,83.37
2017-08-20T05:02:47.278Z,82.75
2017-08-20T05:05:16.405Z,82.74
2017-08-20T05:07:44.805Z,82.39
2017-08-20T05:10:13.184Z,82.03
2017-08-20T05:12:41.577Z,81.81
2017-08-20T05:15:09.945Z,81.69
2017-08-20T05:17:38.330Z,81.19
2017-08-20T05:20:06.726Z,81.23
2017-08-20T05:22:35.108Z,81.44
2017-08-20T05:25:03.509Z,81.61
2017-08-20T05:27:31.882Z,81.55
2017-08-20T05:30:00.291Z,81.12
2017-08-20T05:32:29.421Z,80.62
2017-08-20T05:34:57.803Z,80.54
2017-08-20T05:37:26.267Z,80.38
2017-08-20T05:39:54.664Z,80.18
2017-08-20T05:42:23.085Z,79.66
2017-08-20T05:44:51.459Z,79.54
2017-08-20T05:47:19.833Z,79.60
2017-08-20T05:49:48.231Z,79.15
2017-08-20T05:52:16.617Z,79.08
2017-08-20T05:54:45.028Z,78.89
2017-08-20T05:57:14.163Z,78.56
2017-08-20T05:59:42.543Z,78.54
2017-08-20T06:02:10.930Z,78.54
2017-08-20T06:04:40.383Z,78.74
2017-08-20T06:07:09.513Z,78.78
2017-08-20T06:09:37.878Z,78.64
2017-08-20T06:12:06.277Z,78.37
2017-08-20T06:14:34.650Z,78.17
2017-08-20T06:17:03.049Z,77.97
2017-08-20T06:19:31.416Z,77.79
2017-08-20T06:21:59.809Z,78.46
2017-08-20T06:24:28.169Z,78.37
2017-08-20T06:26:56.546Z,78.74
2017-08-20T06:29:24.955Z,78.42
2017-08-20T06:31:53.332Z,78.31
2017-08-20T06:34:21.734Z,77.95
2017-08-20T06:36:50.112Z,78.10
2017-08-20T06:39:18.513Z,77.18
2017-08-20T06:41:46.891Z,77.51
2017-08-20T06:44:15.307Z,78.45
2017-08-20T06:46:44.437Z,79.12
2017-08-20T06:49:12.805Z,79.33
2017-08-20T06:51:41.210Z,81.46
2017-08-20T06:54:09.603Z,80.03
2017-08-20T06:56:37.996Z,79.18
2017-08-20T06:59:06.360Z,79.56
2017-08-20T07:01:34.764Z,79.02
2017-08-20T07:04:03.204Z,79.82
2017-08-20T07:06:31.701Z,79.94
2017-08-20T07:09:00.065Z,79.67
2017-08-20T07:11:28.448Z,80.19
2017-08-20T07:13:56.893Z,79.88
2017-08-20T07:16:25.306Z,79.65
2017-08-20T07:18:53.713Z,78.51
2017-08-20T07:21:22.096Z,78.66
2017-08-20T07:23:50.520Z,79.47
2017-08-20T07:26:19.714Z,78.79
2017-08-20T07:28:48.082Z,78.77
2017-08-20T07:31:16.495Z,78.21
2017-08-20T07:33:44.903Z,75.97
2017-08-20T07:36:13.540Z,77.26
2017-08-20T07:38:41.920Z,77.47
2017-08-20T07:41:10.309Z,77.26
2017-08-20T07:43:38.680Z,76.97
2017-08-20T07:46:07.075Z,76.78
2017-08-20T07:48:35.451Z,76.70
2017-08-20T07:51:03.864Z,74.16
2017-08-20T07:53:32.251Z,74.05
2017-08-20T07:56:00.656Z,74.76
2017-08-20T07:58:29.030Z,73.63
2017-08-20T08:00:57.435Z,73.96
2017-08-20T08:03:25.815Z,73.33
2017-08-20T08:05:54.196Z,72.66
2017-08-20T08:08:22.607Z,71.65
2017-08-20T08:10:51.737Z,72.01
2017-08-20T08:13:20.149Z,71.46
2017-08-20T08:15:48.518Z,73.10
2017-08-20T08:18:16.923Z,72.50
2017-08-20T08:20:45.311Z,70.21
2017-08-20T08:23:13.697Z,70.09
2017-08-20T08:25:42.115Z,70.95
2017-08-20T08:28:10.499Z,70.30
2017-08-20T08:30:38.904Z,70.78
2017-08-20T08:33:07.280Z,69.39
2017-08-20T08:35:35.668Z,68.63
2017-08-20T08:38:04.087Z,69.55
2017-08-20T08:40:32.460Z,68.00
2017-08-20T08:43:00.846Z,69.58
2017-08-20T08:45:29.226Z,68.89
2017-08-20T08:47:57.635Z,67.11
2017-08-20T08:50:26.005Z,67.74
2017-08-20T08:52:55.148Z,67.84
2017-08-20T08:55:23.541Z,68.23
2017-08-20T08:57:51.910Z,67.04
2017-08-20T09:00:20.311Z,67.27
2017-08-20T09:02:48.682Z,66.89
2017-08-20T09:05:17.064Z,67.75
2017-08-20T09:07:45.467Z,66.06
2017-08-20T09:10:13.832Z,65.52
2017-08-20T09:12:42.229Z,64.84
2017-08-20T09:15:10.607Z,63.57
2017-08-20T09:17:39.019Z,63.42
2017-08-20T09:20:08.154Z,63.48
2017-08-20T09:22:36.513Z,61.42
2017-08-20T09:25:04.910Z,61.33
2017-08-20T09:27:34.296Z,62.50
2017-08-20T09:30:02.715Z,61.92
2017-08-20T09:32:31.090Z,61.79
2017-08-20T09:34:59.475Z,62.08
2017-08-20T09:37:27.879Z,63.60
2017-08-20T09:39:56.246Z,64.14
2017-08-20T09:42:24.620Z,66.14
2017-08-20T09:44:53.027Z,67.05
2017-08-20T09:47:21.403Z,71.17
2017-08-20T09:49:49.817Z,69.80
2017-08-20T09:52:18.958Z,70.04
2017-08-20T09:54:47.783Z,68.15
2017-08-20T09:57:16.183Z,68.90
2017-08-20T09:59:44.578Z,71.00
2017-08-20T10:02:12.996Z,70.76
2017-08-20T10:04:41.362Z,71.52
2017-08-20T10:07:09.772Z,70.70
2017-08-20T10:09:38.140Z,68.65
2017-08-20T10:12:07.600Z,69.68
2017-08-20T10:14:36.752Z,69.96
2017-08-20T10:17:05.116Z,68.67
2017-08-20T10:19:33.501Z,65.09
2017-08-20T10:22:01.883Z,62.92
2017-08-20T10:24:30.292Z,63.39
2017-08-20T10:26:58.667Z,62.05
2017-08-20T10:29:27.033Z,59.83
2017-08-20T10:31:55.455Z,61.55
2017-08-20T10:34:23.819Z,61.84
2017-08-20T10:36:52.207Z,62.63
2017-08-20T10:39:20.588Z,61.39
2017-08-20T10:41:48.987Z,61.37
2017-08-20T10:44:18.156Z,63.54
2017-08-20T10:46:46.559Z,63.13
2017-08-20T10:49:15.712Z,63.20
2017-08-20T10:51:44.074Z,62.42
2017-08-20T10:54:12.479Z,61.69
2017-08-20T10:56:40.841Z,59.16
2017-08-20T10:59:09.227Z,60.03
2017-08-20T11:01:37.592Z,59.43
2017-08-20T11:04:05.981Z,59.70
2017-08-20T11:06:34.351Z,59.56
2017-08-20T11:09:02.749Z,61.25
2017-08-20T11:11:31.123Z,62.10
2017-08-20T11:13:59.484Z,62.51
2017-08-20T11:16:28.651Z,59.99
2017-08-20T11:18:57.021Z,60.20
2017-08-20T11:21:25.427Z,59.89
2017-08-20T11:23:53.803Z,59.89
2017-08-20T11:26:22.180Z,59.64
2017-08-20T11:28:50.568Z,60.03
2017-08-20T11:31:18.939Z,58.30
2017-08-20T11:33:47.338Z,57.18
2017-08-20T11:36:15.705Z,57.63
2017-08-20T11:38:44.096Z,58.24
2017-08-20T11:41:12.493Z,56.36
2017-08-20T11:43:41.649Z,57.72
2017-08-20T11:46:10.031Z,57.73
2017-08-20T11:48:38.466Z,57.33
2017-08-20T11:51:06.859Z,57.62
2017-08-20T11:53:35.247Z,56.44
2017-08-20T11:56:03.672Z,56.91
2017-08-20T11:58:32.047Z,56.69
2017-08-20T12:01:00.434Z,56.58
2017-08-20T12:03:28.815Z,55.27
2017-08-20T12:05:57.201Z,55.34
2017-08-20T12:08:25.589Z,51.71
2017-08-20T12:10:53.982Z,53.29
2017-08-20T12:13:23.113Z,52.70
2017-08-20T12:15:51.513Z,52.30
2017-08-20T12:18:19.884Z,52.79
2017-08-20T12:20:48.244Z,52.21
2017-08-20T12:23:16.645Z,48.44
2017-08-20T12:25:45.024Z,48.08
2017-08-20T12:28:13.440Z,49.28
2017-08-20T12:30:41.808Z,48.20
2017-08-20T12:33:10.192Z,49.26
2017-08-20T12:35:38.574Z,48.99
2017-08-20T12:38:06.969Z,49.89
2017-08-20T12:40:35.350Z,48.40
2017-08-20T12:43:03.767Z,47.85
2017-08-20T12:45:32.141Z,48.66
2017-08-20T12:48:00.542Z,46.54
2017-08-20T12:50:28.919Z,47.62
2017-08-20T12:52:57.299Z,49.49
2017-08-20T12:55:25.711Z,47.84
2017-08-20T12:57:54.092Z,48.12
2017-08-20T13:00:22.489Z,47.83
2017-08-20T13:02:50.854Z,47.77
2017-08-20T13:05:19.226Z,47.76
2017-08-20T13:07:47.613Z,48.57
2017-08-20T13:10:15.977Z,46.14
2017-08-20T13:12:44.367Z,47.65
2017-08-20T13:15:12.726Z,46.73
2017-08-20T13:17:41.172Z,45.77
2017-08-20T13:20:09.564Z,47.71
2017-08-20T13:22:37.959Z,49.00
2017-08-20T13:25:06.330Z,50.15
2017-08-20T13:27:34.707Z,51.53
2017-08-20T13:30:03.136Z,52.95
2017-08-20T13:32:31.527Z,52.82
2017-08-20T13:34:59.985Z,54.15
2017-08-20T13:37:28.359Z,56.09
2017-08-20T13:39:56.778Z,55.80
2017-08-20T13:42:25.155Z,55.09
2017-08-20T13:44:53.563Z,57.30
2017-08-20T13:47:21.939Z,61.40
2017-08-20T13:49:50.337Z,65.36
2017-08-20T13:52:19.489Z,70.04
2017-08-20T13:54:47.895Z,70.69
2017-08-20T13:57:16.273Z,72.25
2017-08-20T13:59:44.635Z,71.16
2017-08-20T14:02:13.031Z,69.03
2017-08-20T14:04:41.424Z,67.55
2017-08-20T14:07:09.824Z,66.44
2017-08-20T14:09:38.961Z,63.87
2017-08-20T14:12:07.367Z,61.15
2017-08-20T14:14:35.765Z,60.31
2017-08-20T14:17:04.175Z,60.17
2017-08-20T14:19:33.322Z,57.53
2017-08-20T14:22:01.688Z,58.38
2017-08-20T14:24:30.095Z,52.41
2017-08-20T14:26:58.465Z,43.46
2017-08-20T14:29:26.868Z,42.72
2017-08-20T14:31:55.249Z,41.89
2017-08-20T14:34:23.639Z,41.49
2017-08-20T14:36:52.025Z,41.25
2017-08-20T14:39:20.390Z,39.87
2017-08-20T14:41:48.799Z,40.32
2017-08-20T14:44:17.933Z,38.60
2017-08-20T14:46:46.338Z,38.11
2017-08-20T14:49:14.710Z,39.44
2017-08-20T14:51:43.112Z,41.64
2017-08-20T14:54:11.499Z,41.95
2017-08-20T14:56:39.894Z,45.12
2017-08-20T14:59:08.318Z,44.04
2017-08-20T15:01:36.700Z,44.72
2017-08-20T15:04:05.103Z,44.59
2017-08-20T15:06:33.496Z,42.47
2017-08-20T15:09:01.895Z,41.67
2017-08-20T15:11:30.285Z,40.81
2017-08-20T15:13:59.440Z,41.68
2017-08-20T15:16:27.815Z,40.68
2017-08-20T15:18:56.193Z,40.60
2017-08-20T15:21:24.605Z,41.26
2017-08-20T15:23:52.991Z,39.48
2017-08-20T15:26:21.377Z,38.10
2017-08-20T15:28:49.768Z,39.27
2017-08-20T15:31:18.908Z,39.44
2017-08-20T15:33:47.299Z,37.90
2017-08-20T15:36:15.663Z,36.77
2017-08-20T15:38:44.067Z,37.22
2017-08-20T15:41:12.429Z,36.27
2017-08-20T15:43:40.801Z,39.17
2017-08-20T15:46:09.206Z,37.07
2017-08-20T15:48:37.599Z,38.17
2017-08-20T15:51:05.979Z,39.29
2017-08-20T15:53:34.381Z,42.49
2017-08-20T15:56:02.755Z,41.76
2017-08-20T15:58:31.132Z,41.87
2017-08-20T16:00:59.527Z,41.10
2017-08-20T16:03:27.914Z,41.31
2017-08-20T16:05:56.344Z,41.30
2017-08-20T16:08:24.710Z,44.21
2017-08-20T16:10:53.112Z,46.97
2017-08-20T16:13:21.472Z,47.94
2017-08-20T16:15:49.846Z,49.32
2017-08-20T16:18:18.258Z,50.05
2017-08-20T16:20:46.641Z,49.90
2017-08-20T16:23:15.052Z,51.54
2017-08-20T16:25:43.437Z,51.32
2017-08-20T16:28:11.801Z,52.22
2017-08-20T16:30:40.203Z,53.22
2017-08-20T16:33:08.583Z,53.19
2017-08-20T16:35:36.981Z,52.04
2017-08-20T16:38:05.391Z,52.65
2017-08-20T16:40:33.763Z,53.42
2017-08-20T16:43:02.147Z,53.97
2017-08-20T16:45:30.557Z,53.03
2017-08-20T16:47:58.949Z,52.90
2017-08-20T16:50:27.341Z,52.32
2017-08-20T16:52:55.725Z,52.63
2017-08-20T16:55:24.110Z,52.65
2017-08-20T16:57:52.505Z,51.60
2017-08-20T17:00:20.874Z,50.01
2017-08-20T17:02:49.265Z,49.06
2017-08-20T17:05:17.635Z,49.68
2017-08-20T17:07:46.060Z,49.46
2017-08-20T17:10:14.441Z,49.33
2017-08-20T17:12:42.819Z,48.75
2017-08-20T17:15:11.219Z,49.32
2017-08-20T17:17:39.612Z,49.89
2017-08-20T17:20:08.019Z,49.97
2017-08-20T17:22:36.416Z,49.79
2017-08-20T17:25:04.810Z,48.84
2017-08-20T17:27:33.209Z,50.12
2017-08-20T17:30:01.619Z,48.87
2017-08-20T17:32:30.003Z,48.32
2017-08-20T17:34:58.377Z,48.54
2017-08-20T17:37:26.785Z,49.06
2017-08-20T17:39:55.177Z,49.64
2017-08-20T17:42:23.551Z,51.99
2017-08-20T17:44:51.967Z,52.56
2017-08-20T17:47:21.103Z,52.59
2017-08-20T17:49:49.491Z,53.67
2017-08-20T17:52:17.892Z,53.89
2017-08-20T17:54:46.290Z,54.44
2017-08-20T17:57:14.661Z,54.88
2017-08-20T17:59:43.039Z,55.38
2017-08-20T18:02:11.449Z,57.00
2017-08-20T18:04:40.595Z,54.92
2017-08-20T18:07:08.979Z,55.73
2017-08-20T18:09:37.403Z,56.37
2017-08-20T18:12:05.791Z,55.98
2017-08-20T18:14:34.965Z,57.37
2017-08-20T18:17:03.333Z,58.22
2017-08-20T18:19:31.709Z,59.29
2017-08-20T18:22:00.101Z,60.75
2017-08-20T18:24:28.473Z,62.01
2017-08-20T18:26:56.849Z,62.69
2017-08-20T18:29:25.250Z,63.49
2017-08-20T18:31:53.630Z,63.89
2017-08-20T18:34:21.998Z,64.19
2017-08-20T18:36:50.396Z,65.23
2017-08-20T18:39:18.784Z,65.32
2017-08-20T18:41:47.168Z,65.66
2017-08-20T18:44:15.565Z,66.71
2017-08-20T18:46:43.950Z,66.96
2017-08-20T18:49:12.349Z,67.69
2017-08-20T18:51:40.724Z,68.42
2017-08-20T18:54:09.131Z,69.22
2017-08-20T18:56:37.516Z,69.46
2017-08-20T18:59:05.904Z,69.36
2017-08-20T19:01:34.310Z,69.05
2017-08-20T19:04:02.684Z,69.46
2017-08-20T19:06:31.061Z,70.04
2017-08-20T19:08:59.473Z,70.56
2017-08-20T19:11:27.841Z,71.10
2017-08-20T19:13:56.226Z,71.13
2017-08-20T19:16:25.405Z,71.63
2017-08-20T19:18:53.768Z,71.69
2017-08-20T19:21:22.148Z,71.63
2017-08-20T19:23:50.561Z,71.71
2017-08-20T19:26:18.994Z,72.16
2017-08-20T19:28:47.380Z,72.43
2017-08-20T19:31:15.779Z,72.59
2017-08-20T19:33:44.210Z,72.83
2017-08-20T19:36:12.609Z,73.58
2017-08-20T19:38:40.969Z,73.16
2017-08-20T19:41:09.346Z,72.95
2017-08-20T19:43:38.500Z,73.40
2017-08-20T19:46:06.883Z,73.47
2017-08-20T19:48:35.289Z,73.42
2017-08-20T19:51:03.718Z,73.73
2017-08-20T19:53:32.114Z,74.48
2017-08-20T19:56:00.511Z,74.16
2017-08-20T19:58:28.892Z,74.68
2017-08-20T20:00:57.308Z,75.05
2017-08-20T20:03:26.445Z,75.34
2017-08-20T20:05:54.838Z,75.41
2017-08-20T20:08:23.208Z,75.12
2017-08-20T20:10:51.614Z,75.87
2017-08-20T20:13:20.073Z,75.25
2017-08-20T20:15:48.501Z,75.53
2017-08-20T20:18:16.902Z,75.57
2017-08-20T20:20:46.040Z,75.91
2017-08-20T20:23:14.449Z,75.56
2017-08-20T20:25:42.867Z,76.09
2017-08-20T20:28:11.317Z,75.95
2017-08-20T20:30:39.857Z,76.59
2017-08-20T20:33:08.329Z,76.22
2017-08-20T20:35:36.817Z,76.21
2017-08-20T20:38:06.841Z,76.16
2017-08-20T20:40:44.791Z,76.79
2017-08-20T20:43:17.334Z,76.98
2017-08-20T20:45:48.768Z,77.98
2017-08-20T20:48:38.502Z,77.51
2017-08-20T20:51:17.472Z,77.19
2017-08-20T20:53:48.874Z,77.61
2017-08-20T20:56:18.104Z,78.64
2017-08-20T20:58:46.480Z,77.96
2017-08-20T21:01:15.130Z,77.98
2017-08-20T21:03:43.588Z,78.01
2017-08-20T21:06:11.990Z,77.57
2017-08-20T21:08:40.365Z,77.54
2017-08-20T21:11:08.763Z,77.07
2017-08-20T21:13:37.146Z,77.45
2017-08-20T21:16:05.521Z,77.58
2017-08-20T21:18:33.928Z,77.96
2017-08-20T21:21:02.326Z,77.62
2017-08-20T21:23:31.495Z,78.15
2017-08-20T21:25:59.866Z,78.46
2017-08-20T21:28:28.268Z,77.99
2017-08-20T21:30:56.679Z,78.23
2017-08-20T21:33:25.065Z,78.18
2017-08-20T21:35:53.465Z,78.22
2017-08-20T21:38:21.838Z,78.28
2017-08-20T21:40:50.260Z,78.00
2017-08-20T21:43:18.640Z,77.29
2017-08-20T21:45:47.041Z,77.94
2017-08-20T21:48:15.431Z,77.98
2017-08-20T21:50:43.852Z,78.39
2017-08-20T21:53:12.233Z,78.47
2017-08-20T21:55:40.622Z,78.14
2017-08-20T21:58:09.032Z,77.90
2017-08-20T22:00:37.416Z,78.58
2017-08-20T22:03:05.831Z,78.54
2017-08-20T22:05:34.218Z,78.05
2017-08-20T22:08:03.386Z,78.25
2017-08-20T22:10:31.763Z,78.33
2017-08-20T22:13:00.156Z,79.29
2017-08-20T22:15:28.566Z,79.39
2017-08-20T22:17:56.960Z,78.80
2017-08-20T22:20:25.387Z,78.77
2017-08-20T22:22:53.757Z,78.61
2017-08-20T22:25:22.137Z,78.95
2017-08-20T22:27:50.533Z,78.62
2017-08-20T22:30:18.921Z,78.75
2017-08-20T22:32:47.313Z,79.07
2017-08-20T22:35:15.730Z,78.63
2017-08-20T22:37:44.105Z,78.67
2017-08-20T22:40:12.504Z,78.76
2017-08-20T22:42:40.910Z,78.48
2017-08-20T22:45:09.281Z,77.70
2017-08-20T22:47:37.672Z,77.67
2017-08-20T22:50:06.072Z,77.85
2017-08-20T22:52:34.466Z,78.29
2017-08-20T22:55:02.836Z,77.88
2017-08-20T22:57:31.210Z,78.82
2017-08-20T23:00:00.036Z,79.33
2017-08-20T23:02:28.497Z,79.84
2017-08-20T23:04:56.869Z,79.51
2017-08-20T23:07:25.270Z,79.80
2017-08-20T23:09:54.409Z,80.01
2017-08-20T23:12:22.801Z,79.95
2017-08-20T23:14:51.194Z,79.95
2017-08-20T23:17:19.588Z,79.33
2017-08-20T23:19:48.464Z,79.22
2017-08-20T23:22:17.034Z,79.72
2017-08-20T23:24:45.456Z,79.41
2017-08-20T23:27:13.833Z,79.18
2017-08-20T23:29:42.211Z,79.06
2017-08-20T23:32:10.632Z,78.90
2017-08-20T23:34:39.033Z,79.23
2017-08-20T23:37:07.416Z,79.12
2017-08-20T23:39:35.852Z,78.99
2017-08-20T23:42:04.225Z,78.84
2017-08-20T23:44:32.633Z,78.90
2017-08-20T23:47:01.774Z,79.20
2017-08-20T23:49:30.155Z,79.27
2017-08-20T23:51:58.570Z,78.67
2017-08-20T23:54:26.937Z,79.17
2017-08-20T23:56:55.358Z,79.40
2017-08-20T23:59:24.510Z,79.84
